sensor_id;sensor_type;location;lat;lon;timestamp;P1;durP1;ratioP1;P2;durP2;ratioP2
66874;SDS011;53784;52.630;4.896;2022-08-01T00:01:28;0.20;;;0.20;;
66874;SDS011;53784;52.630;4.896;2022-08-01T00:03:53;0.10;;;0.10;;
66874;SDS011;53784;52.630;4.896;2022-08-01T00:06:18;0.95;;;0.50;;
66874;SDS011;53784;52.630;4.896;2022-08-01T00:08:44;0.10;;;0.10;;
66874;SDS011;53784;52.630;4.896;2022-08-01T00:11:09;0.10;;;0.10;;
66874;SDS011;53784;52.630;4.896;2022-08-01T00:13:34;0.10;;;0.10;;
66874;SDS011;53784;52.630;4.896;2022-08-01T00:16:00;0.10;;;0.10;;
66874;SDS011;53784;52.630;4.896;2022-08-01T00:18:25;0.10;;;0.10;;
66874;SDS011;53784;52.630;4.896;2022-08-01T00:20:51;0.10;;;0.10;;
66874;SDS011;53784;52.630;4.896;2022-08-01T00:23:16;0.10;;;0.10;;
66874;SDS011;53784;52.630;4.896;2022-08-01T00:25:41;0.20;;;0.20;;
66874;SDS011;53784;52.630;4.896;2022-08-01T00:28:07;0.10;;;0.10;;
66874;SDS011;53784;52.630;4.896;2022-08-01T00:30:33;0.10;;;0.10;;
66874;SDS011;53784;52.630;4.896;2022-08-01T00:32:59;0.20;;;0.20;;
66874;SDS011;53784;52.630;4.896;2022-08-01T00:35:24;0.10;;;0.10;;
66874;SDS011;53784;52.630;4.896;2022-08-01T00:37:50;0.10;;;0.10;;
66874;SDS011;53784;52.630;4.896;2022-08-01T00:40:16;0.10;;;0.10;;
66874;SDS011;53784;52.630;4.896;2022-08-01T00:42:41;0.10;;;0.10;;
66874;SDS011;53784;52.630;4.896;2022-08-01T00:45:07;0.10;;;0.10;;
66874;SDS011;53784;52.630;4.896;2022-08-01T00:47:32;0.10;;;0.10;;
66874;SDS011;53784;52.630;4.896;2022-08-01T00:49:58;0.20;;;0.20;;
66874;SDS011;53784;52.630;4.896;2022-08-01T00:52:23;0.10;;;0.10;;
66874;SDS011;53784;52.630;4.896;2022-08-01T00:54:48;0.20;;;0.20;;
66874;SDS011;53784;52.630;4.896;2022-08-01T00:57:14;0.10;;;0.10;;
66874;SDS011;53784;52.630;4.896;2022-08-01T00:59:39;0.10;;;0.10;;
66874;SDS011;53784;52.630;4.896;2022-08-01T01:02:05;0.15;;;0.15;;
66874;SDS011;53784;52.630;4.896;2022-08-01T01:04:31;0.10;;;0.10;;
66874;SDS011;53784;52.630;4.896;2022-08-01T01:10:02;0.10;;;0.10;;
66874;SDS011;53784;52.630;4.896;2022-08-01T01:12:38;0.10;;;0.10;;
66874;SDS011;53784;52.630;4.896;2022-08-01T01:15:23;0.10;;;0.10;;
66874;SDS011;53784;52.630;4.896;2022-08-01T01:18:00;0.10;;;0.10;;
66874;SDS011;53784;52.630;4.896;2022-08-01T01:20:32;0.10;;;0.10;;
66874;SDS011;53784;52.630;4.896;2022-08-01T01:23:05;0.10;;;0.10;;
66874;SDS011;53784;52.630;4.896;2022-08-01T01:25:42;0.10;;;0.10;;
66874;SDS011;53784;52.630;4.896;2022-08-01T01:30:59;0.20;;;0.20;;
66874;SDS011;53784;52.630;4.896;2022-08-01T01:33:25;0.10;;;0.10;;
66874;SDS011;53784;52.630;4.896;2022-08-01T01:35:55;0.10;;;0.10;;
66874;SDS011;53784;52.630;4.896;2022-08-01T01:38:24;0.10;;;0.10;;
66874;SDS011;53784;52.630;4.896;2022-08-01T01:40:52;0.10;;;0.10;;
66874;SDS011;53784;52.630;4.896;2022-08-01T01:43:17;0.10;;;0.10;;
66874;SDS011;53784;52.630;4.896;2022-08-01T01:45:44;0.10;;;0.10;;
66874;SDS011;53784;52.630;4.896;2022-08-01T01:48:12;0.10;;;0.10;;
66874;SDS011;53784;52.630;4.896;2022-08-01T01:50:39;0.10;;;0.10;;
66874;SDS011;53784;52.630;4.896;2022-08-01T01:53:06;0.10;;;0.10;;
66874;SDS011;53784;52.630;4.896;2022-08-01T01:55:31;0.10;;;0.10;;
66874;SDS011;53784;52.630;4.896;2022-08-01T01:57:57;0.25;;;0.20;;
66874;SDS011;53784;52.630;4.896;2022-08-01T02:00:23;0.10;;;0.10;;
66874;SDS011;53784;52.630;4.896;2022-08-01T02:02:50;0.10;;;0.10;;
66874;SDS011;53784;52.630;4.896;2022-08-01T02:05:16;0.10;;;0.10;;
66874;SDS011;53784;52.630;4.896;2022-08-01T02:07:42;0.10;;;0.10;;
66874;SDS011;53784;52.630;4.896;2022-08-01T02:10:08;0.20;;;0.20;;
66874;SDS011;53784;52.630;4.896;2022-08-01T02:12:36;0.10;;;0.10;;
66874;SDS011;53784;52.630;4.896;2022-08-01T02:15:03;0.10;;;0.10;;
66874;SDS011;53784;52.630;4.896;2022-08-01T02:17:29;0.10;;;0.10;;
66874;SDS011;53784;52.630;4.896;2022-08-01T02:19:55;0.10;;;0.10;;
66874;SDS011;53784;52.630;4.896;2022-08-01T02:22:26;0.10;;;0.10;;
66874;SDS011;53784;52.630;4.896;2022-08-01T02:25:01;0.10;;;0.10;;
66874;SDS011;53784;52.630;4.896;2022-08-01T02:27:30;0.10;;;0.10;;
66874;SDS011;53784;52.630;4.896;2022-08-01T02:30:06;0.20;;;0.20;;
66874;SDS011;53784;52.630;4.896;2022-08-01T02:32:35;0.10;;;0.10;;
66874;SDS011;53784;52.630;4.896;2022-08-01T02:35:03;0.10;;;0.10;;
66874;SDS011;53784;52.630;4.896;2022-08-01T02:37:33;0.20;;;0.20;;
66874;SDS011;53784;52.630;4.896;2022-08-01T02:40:00;0.10;;;0.10;;
66874;SDS011;53784;52.630;4.896;2022-08-01T02:42:26;0.10;;;0.10;;
66874;SDS011;53784;52.630;4.896;2022-08-01T02:44:53;0.10;;;0.10;;
66874;SDS011;53784;52.630;4.896;2022-08-01T02:47:19;0.10;;;0.10;;
66874;SDS011;53784;52.630;4.896;2022-08-01T02:49:46;0.15;;;0.15;;
66874;SDS011;53784;52.630;4.896;2022-08-01T02:52:14;0.10;;;0.10;;
66874;SDS011;53784;52.630;4.896;2022-08-01T02:54:41;0.10;;;0.10;;
66874;SDS011;53784;52.630;4.896;2022-08-01T02:57:09;0.10;;;0.10;;
66874;SDS011;53784;52.630;4.896;2022-08-01T02:59:36;0.10;;;0.10;;
66874;SDS011;53784;52.630;4.896;2022-08-01T03:02:02;0.10;;;0.10;;
66874;SDS011;53784;52.630;4.896;2022-08-01T03:04:29;0.10;;;0.10;;
66874;SDS011;53784;52.630;4.896;2022-08-01T03:06:56;2.55;;;0.17;;
66874;SDS011;53784;52.630;4.896;2022-08-01T03:09:23;0.10;;;0.10;;
66874;SDS011;53784;52.630;4.896;2022-08-01T03:11:50;0.10;;;0.10;;
66874;SDS011;53784;52.630;4.896;2022-08-01T03:14:16;0.10;;;0.10;;
66874;SDS011;53784;52.630;4.896;2022-08-01T03:16:43;0.13;;;0.13;;
66874;SDS011;53784;52.630;4.896;2022-08-01T03:19:11;0.10;;;0.10;;
66874;SDS011;53784;52.630;4.896;2022-08-01T03:21:36;0.10;;;0.10;;
66874;SDS011;53784;52.630;4.896;2022-08-01T03:24:03;0.10;;;0.10;;
66874;SDS011;53784;52.630;4.896;2022-08-01T03:26:30;0.10;;;0.10;;
66874;SDS011;53784;52.630;4.896;2022-08-01T03:28:58;0.10;;;0.10;;
66874;SDS011;53784;52.630;4.896;2022-08-01T03:31:25;0.10;;;0.10;;
66874;SDS011;53784;52.630;4.896;2022-08-01T03:33:51;0.10;;;0.10;;
66874;SDS011;53784;52.630;4.896;2022-08-01T03:36:16;0.10;;;0.10;;
66874;SDS011;53784;52.630;4.896;2022-08-01T03:38:46;0.15;;;0.15;;
66874;SDS011;53784;52.630;4.896;2022-08-01T03:41:13;0.10;;;0.10;;
66874;SDS011;53784;52.630;4.896;2022-08-01T03:43:42;0.10;;;0.10;;
66874;SDS011;53784;52.630;4.896;2022-08-01T03:46:11;0.10;;;0.10;;
66874;SDS011;53784;52.630;4.896;2022-08-01T03:48:43;0.10;;;0.10;;
66874;SDS011;53784;52.630;4.896;2022-08-01T03:51:13;0.10;;;0.10;;
66874;SDS011;53784;52.630;4.896;2022-08-01T03:53:38;2.53;;;0.30;;
66874;SDS011;53784;52.630;4.896;2022-08-01T03:56:06;0.60;;;0.38;;
66874;SDS011;53784;52.630;4.896;2022-08-01T03:58:33;0.10;;;0.10;;
66874;SDS011;53784;52.630;4.896;2022-08-01T04:00:59;0.10;;;0.10;;
66874;SDS011;53784;52.630;4.896;2022-08-01T04:03:24;0.10;;;0.10;;
66874;SDS011;53784;52.630;4.896;2022-08-01T04:05:50;0.10;;;0.10;;
66874;SDS011;53784;52.630;4.896;2022-08-01T04:08:16;0.10;;;0.10;;
66874;SDS011;53784;52.630;4.896;2022-08-01T04:10:41;0.10;;;0.10;;
66874;SDS011;53784;52.630;4.896;2022-08-01T04:13:06;0.20;;;0.20;;
66874;SDS011;53784;52.630;4.896;2022-08-01T04:15:32;0.10;;;0.10;;
66874;SDS011;53784;52.630;4.896;2022-08-01T04:17:57;0.10;;;0.10;;
66874;SDS011;53784;52.630;4.896;2022-08-01T04:20:22;0.10;;;0.10;;
66874;SDS011;53784;52.630;4.896;2022-08-01T04:22:47;0.10;;;0.10;;
66874;SDS011;53784;52.630;4.896;2022-08-01T04:25:22;0.10;;;0.10;;
66874;SDS011;53784;52.630;4.896;2022-08-01T04:27:51;0.10;;;0.10;;
66874;SDS011;53784;52.630;4.896;2022-08-01T04:30:19;0.10;;;0.10;;
66874;SDS011;53784;52.630;4.896;2022-08-01T04:32:52;0.10;;;0.10;;
66874;SDS011;53784;52.630;4.896;2022-08-01T04:35:19;0.10;;;0.10;;
66874;SDS011;53784;52.630;4.896;2022-08-01T04:37:45;0.10;;;0.10;;
66874;SDS011;53784;52.630;4.896;2022-08-01T04:40:13;0.10;;;0.10;;
66874;SDS011;53784;52.630;4.896;2022-08-01T04:42:39;0.10;;;0.10;;
66874;SDS011;53784;52.630;4.896;2022-08-01T04:45:05;0.10;;;0.10;;
66874;SDS011;53784;52.630;4.896;2022-08-01T04:47:33;0.10;;;0.10;;
66874;SDS011;53784;52.630;4.896;2022-08-01T04:49:59;0.10;;;0.10;;
66874;SDS011;53784;52.630;4.896;2022-08-01T04:52:32;0.10;;;0.10;;
66874;SDS011;53784;52.630;4.896;2022-08-01T04:54:58;0.10;;;0.10;;
66874;SDS011;53784;52.630;4.896;2022-08-01T04:57:23;0.10;;;0.10;;
66874;SDS011;53784;52.630;4.896;2022-08-01T04:59:48;0.10;;;0.10;;
66874;SDS011;53784;52.630;4.896;2022-08-01T05:02:18;0.20;;;0.20;;
66874;SDS011;53784;52.630;4.896;2022-08-01T05:04:44;0.10;;;0.10;;
66874;SDS011;53784;52.630;4.896;2022-08-01T05:07:10;0.10;;;0.10;;
66874;SDS011;53784;52.630;4.896;2022-08-01T05:09:37;0.10;;;0.10;;
66874;SDS011;53784;52.630;4.896;2022-08-01T05:12:03;0.10;;;0.10;;
66874;SDS011;53784;52.630;4.896;2022-08-01T05:14:30;0.10;;;0.10;;
66874;SDS011;53784;52.630;4.896;2022-08-01T05:16:59;0.10;;;0.10;;
66874;SDS011;53784;52.630;4.896;2022-08-01T05:19:27;0.20;;;0.20;;
66874;SDS011;53784;52.630;4.896;2022-08-01T05:21:53;0.10;;;0.10;;
66874;SDS011;53784;52.630;4.896;2022-08-01T05:24:18;0.10;;;0.10;;
66874;SDS011;53784;52.630;4.896;2022-08-01T05:26:44;0.10;;;0.10;;
66874;SDS011;53784;52.630;4.896;2022-08-01T05:29:09;0.10;;;0.10;;
66874;SDS011;53784;52.630;4.896;2022-08-01T05:31:34;0.10;;;0.10;;
66874;SDS011;53784;52.630;4.896;2022-08-01T05:34:00;0.10;;;0.10;;
66874;SDS011;53784;52.630;4.896;2022-08-01T05:36:26;0.25;;;0.20;;
66874;SDS011;53784;52.630;4.896;2022-08-01T05:38:52;0.25;;;0.17;;
66874;SDS011;53784;52.630;4.896;2022-08-01T05:41:17;0.10;;;0.10;;
66874;SDS011;53784;52.630;4.896;2022-08-01T05:43:42;0.10;;;0.10;;
66874;SDS011;53784;52.630;4.896;2022-08-01T05:46:08;0.10;;;0.10;;
66874;SDS011;53784;52.630;4.896;2022-08-01T05:48:33;0.10;;;0.10;;
66874;SDS011;53784;52.630;4.896;2022-08-01T05:50:58;0.10;;;0.10;;
66874;SDS011;53784;52.630;4.896;2022-08-01T05:53:24;0.10;;;0.10;;
66874;SDS011;53784;52.630;4.896;2022-08-01T05:55:49;0.10;;;0.10;;
66874;SDS011;53784;52.630;4.896;2022-08-01T05:58:14;0.20;;;0.20;;
66874;SDS011;53784;52.630;4.896;2022-08-01T06:00:40;0.10;;;0.10;;
66874;SDS011;53784;52.630;4.896;2022-08-01T06:03:05;0.20;;;0.20;;
66874;SDS011;53784;52.630;4.896;2022-08-01T06:05:30;0.10;;;0.10;;
66874;SDS011;53784;52.630;4.896;2022-08-01T06:07:56;0.10;;;0.10;;
66874;SDS011;53784;52.630;4.896;2022-08-01T06:10:22;0.10;;;0.10;;
66874;SDS011;53784;52.630;4.896;2022-08-01T06:12:48;0.10;;;0.10;;
66874;SDS011;53784;52.630;4.896;2022-08-01T06:15:13;0.10;;;0.10;;
66874;SDS011;53784;52.630;4.896;2022-08-01T06:17:38;0.10;;;0.10;;
66874;SDS011;53784;52.630;4.896;2022-08-01T06:20:04;0.10;;;0.10;;
66874;SDS011;53784;52.630;4.896;2022-08-01T06:22:31;0.10;;;0.10;;
66874;SDS011;53784;52.630;4.896;2022-08-01T06:24:56;0.10;;;0.10;;
66874;SDS011;53784;52.630;4.896;2022-08-01T06:27:22;0.20;;;0.20;;
66874;SDS011;53784;52.630;4.896;2022-08-01T06:29:49;0.10;;;0.10;;
66874;SDS011;53784;52.630;4.896;2022-08-01T06:32:18;0.10;;;0.10;;
66874;SDS011;53784;52.630;4.896;2022-08-01T06:34:43;0.10;;;0.10;;
66874;SDS011;53784;52.630;4.896;2022-08-01T06:37:08;0.10;;;0.10;;
66874;SDS011;53784;52.630;4.896;2022-08-01T06:39:34;0.17;;;0.17;;
66874;SDS011;53784;52.630;4.896;2022-08-01T06:41:59;0.20;;;0.20;;
66874;SDS011;53784;52.630;4.896;2022-08-01T06:44:24;0.10;;;0.10;;
66874;SDS011;53784;52.630;4.896;2022-08-01T06:46:50;0.10;;;0.10;;
66874;SDS011;53784;52.630;4.896;2022-08-01T06:49:15;0.20;;;0.20;;
66874;SDS011;53784;52.630;4.896;2022-08-01T06:51:40;0.20;;;0.20;;
66874;SDS011;53784;52.630;4.896;2022-08-01T06:54:05;0.20;;;0.20;;
66874;SDS011;53784;52.630;4.896;2022-08-01T06:56:31;0.55;;;0.35;;
66874;SDS011;53784;52.630;4.896;2022-08-01T06:58:56;0.30;;;0.30;;
66874;SDS011;53784;52.630;4.896;2022-08-01T07:01:25;0.20;;;0.20;;
66874;SDS011;53784;52.630;4.896;2022-08-01T07:03:54;0.30;;;0.30;;
66874;SDS011;53784;52.630;4.896;2022-08-01T07:06:19;0.30;;;0.30;;
66874;SDS011;53784;52.630;4.896;2022-08-01T07:08:45;0.30;;;0.30;;
66874;SDS011;53784;52.630;4.896;2022-08-01T07:11:10;0.30;;;0.30;;
66874;SDS011;53784;52.630;4.896;2022-08-01T07:13:35;0.50;;;0.40;;
66874;SDS011;53784;52.630;4.896;2022-08-01T07:16:01;0.40;;;0.40;;
66874;SDS011;53784;52.630;4.896;2022-08-01T07:18:26;0.40;;;0.40;;
66874;SDS011;53784;52.630;4.896;2022-08-01T07:20:51;0.80;;;0.50;;
66874;SDS011;53784;52.630;4.896;2022-08-01T07:23:17;0.50;;;0.40;;
66874;SDS011;53784;52.630;4.896;2022-08-01T07:25:42;0.60;;;0.40;;
66874;SDS011;53784;52.630;4.896;2022-08-01T07:28:07;0.50;;;0.40;;
66874;SDS011;53784;52.630;4.896;2022-08-01T07:30:33;0.50;;;0.40;;
66874;SDS011;53784;52.630;4.896;2022-08-01T07:32:58;1.50;;;1.08;;
66874;SDS011;53784;52.630;4.896;2022-08-01T07:35:23;0.53;;;0.43;;
66874;SDS011;53784;52.630;4.896;2022-08-01T07:37:49;0.60;;;0.50;;
66874;SDS011;53784;52.630;4.896;2022-08-01T07:40:14;0.60;;;0.50;;
66874;SDS011;53784;52.630;4.896;2022-08-01T07:42:40;0.60;;;0.50;;
66874;SDS011;53784;52.630;4.896;2022-08-01T07:45:08;0.60;;;0.50;;
66874;SDS011;53784;52.630;4.896;2022-08-01T07:47:34;0.80;;;0.60;;
66874;SDS011;53784;52.630;4.896;2022-08-01T07:50:00;0.80;;;0.50;;
66874;SDS011;53784;52.630;4.896;2022-08-01T07:52:26;1.58;;;1.05;;
66874;SDS011;53784;52.630;4.896;2022-08-01T07:54:51;1.00;;;0.60;;
66874;SDS011;53784;52.630;4.896;2022-08-01T07:57:17;0.80;;;0.55;;
66874;SDS011;53784;52.630;4.896;2022-08-01T07:59:42;0.60;;;0.50;;
66874;SDS011;53784;52.630;4.896;2022-08-01T08:02:07;0.60;;;0.50;;
66874;SDS011;53784;52.630;4.896;2022-08-01T08:04:33;0.70;;;0.50;;
66874;SDS011;53784;52.630;4.896;2022-08-01T08:06:58;1.10;;;0.70;;
66874;SDS011;53784;52.630;4.896;2022-08-01T08:09:23;0.70;;;0.60;;
66874;SDS011;53784;52.630;4.896;2022-08-01T08:11:49;0.50;;;0.40;;
66874;SDS011;53784;52.630;4.896;2022-08-01T08:14:15;0.50;;;0.40;;
66874;SDS011;53784;52.630;4.896;2022-08-01T08:16:41;0.40;;;0.40;;
66874;SDS011;53784;52.630;4.896;2022-08-01T08:19:07;0.60;;;0.50;;
66874;SDS011;53784;52.630;4.896;2022-08-01T08:21:32;0.50;;;0.40;;
66874;SDS011;53784;52.630;4.896;2022-08-01T08:23:57;0.50;;;0.40;;
66874;SDS011;53784;52.630;4.896;2022-08-01T08:26:41;0.50;;;0.40;;
66874;SDS011;53784;52.630;4.896;2022-08-01T08:29:07;1.00;;;0.70;;
66874;SDS011;53784;52.630;4.896;2022-08-01T08:31:32;0.60;;;0.50;;
66874;SDS011;53784;52.630;4.896;2022-08-01T08:33:57;0.70;;;0.50;;
66874;SDS011;53784;52.630;4.896;2022-08-01T08:36:23;0.90;;;0.60;;
66874;SDS011;53784;52.630;4.896;2022-08-01T08:38:48;1.00;;;0.60;;
66874;SDS011;53784;52.630;4.896;2022-08-01T08:41:13;1.30;;;0.70;;
66874;SDS011;53784;52.630;4.896;2022-08-01T08:43:39;1.25;;;0.70;;
66874;SDS011;53784;52.630;4.896;2022-08-01T08:46:05;1.33;;;0.70;;
66874;SDS011;53784;52.630;4.896;2022-08-01T08:48:31;1.40;;;0.70;;
66874;SDS011;53784;52.630;4.896;2022-08-01T08:50:56;1.30;;;0.70;;
66874;SDS011;53784;52.630;4.896;2022-08-01T08:53:22;1.40;;;0.70;;
66874;SDS011;53784;52.630;4.896;2022-08-01T08:55:48;1.30;;;0.70;;
66874;SDS011;53784;52.630;4.896;2022-08-01T08:58:15;1.77;;;0.90;;
66874;SDS011;53784;52.630;4.896;2022-08-01T09:00:42;1.40;;;0.70;;
66874;SDS011;53784;52.630;4.896;2022-08-01T09:03:08;1.23;;;0.70;;
66874;SDS011;53784;52.630;4.896;2022-08-01T09:05:33;1.30;;;0.70;;
66874;SDS011;53784;52.630;4.896;2022-08-01T09:07:58;1.10;;;0.60;;
66874;SDS011;53784;52.630;4.896;2022-08-01T09:10:24;1.10;;;0.60;;
66874;SDS011;53784;52.630;4.896;2022-08-01T09:13:09;1.00;;;0.60;;
66874;SDS011;53784;52.630;4.896;2022-08-01T09:15:40;0.98;;;0.60;;
66874;SDS011;53784;52.630;4.896;2022-08-01T09:18:07;0.98;;;0.60;;
66874;SDS011;53784;52.630;4.896;2022-08-01T09:20:32;0.80;;;0.50;;
66874;SDS011;53784;52.630;4.896;2022-08-01T09:23:01;1.23;;;0.50;;
66874;SDS011;53784;52.630;4.896;2022-08-01T09:25:27;1.15;;;0.65;;
66874;SDS011;53784;52.630;4.896;2022-08-01T09:28:04;0.80;;;0.50;;
66874;SDS011;53784;52.630;4.896;2022-08-01T09:30:32;0.80;;;0.50;;
66874;SDS011;53784;52.630;4.896;2022-08-01T09:33:02;0.70;;;0.50;;
66874;SDS011;53784;52.630;4.896;2022-08-01T09:35:29;0.60;;;0.50;;
66874;SDS011;53784;52.630;4.896;2022-08-01T09:40:46;1.02;;;0.50;;
66874;SDS011;53784;52.630;4.896;2022-08-01T09:43:12;0.68;;;0.50;;
66874;SDS011;53784;52.630;4.896;2022-08-01T09:45:37;0.50;;;0.40;;
66874;SDS011;53784;52.630;4.896;2022-08-01T09:48:06;0.40;;;0.40;;
66874;SDS011;53784;52.630;4.896;2022-08-01T09:50:43;0.40;;;0.40;;
66874;SDS011;53784;52.630;4.896;2022-08-01T09:53:10;0.40;;;0.40;;
66874;SDS011;53784;52.630;4.896;2022-08-01T09:55:37;0.40;;;0.40;;
66874;SDS011;53784;52.630;4.896;2022-08-01T09:58:03;0.40;;;0.40;;
66874;SDS011;53784;52.630;4.896;2022-08-01T10:00:29;0.70;;;0.50;;
66874;SDS011;53784;52.630;4.896;2022-08-01T10:02:54;0.40;;;0.40;;
66874;SDS011;53784;52.630;4.896;2022-08-01T10:05:29;0.40;;;0.40;;
66874;SDS011;53784;52.630;4.896;2022-08-01T10:08:03;0.60;;;0.50;;
66874;SDS011;53784;52.630;4.896;2022-08-01T10:10:30;0.50;;;0.40;;
66874;SDS011;53784;52.630;4.896;2022-08-01T10:12:56;0.40;;;0.40;;
66874;SDS011;53784;52.630;4.896;2022-08-01T10:15:23;0.50;;;0.40;;
66874;SDS011;53784;52.630;4.896;2022-08-01T10:20:22;0.40;;;0.40;;
66874;SDS011;53784;52.630;4.896;2022-08-01T10:22:49;0.50;;;0.40;;
66874;SDS011;53784;52.630;4.896;2022-08-01T10:25:14;0.40;;;0.40;;
66874;SDS011;53784;52.630;4.896;2022-08-01T10:27:43;0.32;;;0.32;;
66874;SDS011;53784;52.630;4.896;2022-08-01T10:30:11;0.40;;;0.40;;
66874;SDS011;53784;52.630;4.896;2022-08-01T10:32:37;0.50;;;0.45;;
66874;SDS011;53784;52.630;4.896;2022-08-01T10:35:03;0.40;;;0.40;;
66874;SDS011;53784;52.630;4.896;2022-08-01T10:37:29;0.35;;;0.35;;
66874;SDS011;53784;52.630;4.896;2022-08-01T10:39:55;0.40;;;0.40;;
66874;SDS011;53784;52.630;4.896;2022-08-01T10:42:20;0.40;;;0.40;;
66874;SDS011;53784;52.630;4.896;2022-08-01T10:44:46;0.40;;;0.40;;
66874;SDS011;53784;52.630;4.896;2022-08-01T10:47:13;0.52;;;0.50;;
66874;SDS011;53784;52.630;4.896;2022-08-01T10:49:51;0.40;;;0.40;;
66874;SDS011;53784;52.630;4.896;2022-08-01T10:52:21;0.40;;;0.40;;
66874;SDS011;53784;52.630;4.896;2022-08-01T10:54:47;0.40;;;0.40;;
66874;SDS011;53784;52.630;4.896;2022-08-01T10:57:13;0.40;;;0.40;;
66874;SDS011;53784;52.630;4.896;2022-08-01T10:59:49;0.50;;;0.40;;
66874;SDS011;53784;52.630;4.896;2022-08-01T11:02:25;0.50;;;0.40;;
66874;SDS011;53784;52.630;4.896;2022-08-01T11:05:02;0.50;;;0.40;;
66874;SDS011;53784;52.630;4.896;2022-08-01T11:07:43;0.85;;;0.60;;
66874;SDS011;53784;52.630;4.896;2022-08-01T11:10:16;0.80;;;0.57;;
66874;SDS011;53784;52.630;4.896;2022-08-01T11:12:47;0.80;;;0.50;;
66874;SDS011;53784;52.630;4.896;2022-08-01T11:17:44;1.00;;;0.60;;
66874;SDS011;53784;52.630;4.896;2022-08-01T11:20:15;0.85;;;0.50;;
66874;SDS011;53784;52.630;4.896;2022-08-01T11:30:40;0.80;;;0.50;;
66874;SDS011;53784;52.630;4.896;2022-08-01T11:33:06;1.50;;;0.85;;
66874;SDS011;53784;52.630;4.896;2022-08-01T11:35:31;0.60;;;0.50;;
66874;SDS011;53784;52.630;4.896;2022-08-01T11:37:57;0.60;;;0.50;;
66874;SDS011;53784;52.630;4.896;2022-08-01T11:40:47;0.60;;;0.50;;
66874;SDS011;53784;52.630;4.896;2022-08-01T11:45:51;0.60;;;0.50;;
66874;SDS011;53784;52.630;4.896;2022-08-01T11:48:21;0.60;;;0.50;;
66874;SDS011;53784;52.630;4.896;2022-08-01T11:50:50;0.70;;;0.50;;
66874;SDS011;53784;52.630;4.896;2022-08-01T11:53:16;0.70;;;0.50;;
66874;SDS011;53784;52.630;4.896;2022-08-01T11:55:46;0.73;;;0.50;;
66874;SDS011;53784;52.630;4.896;2022-08-01T11:58:14;0.60;;;0.50;;
66874;SDS011;53784;52.630;4.896;2022-08-01T12:00:40;0.60;;;0.47;;
66874;SDS011;53784;52.630;4.896;2022-08-01T12:03:06;0.50;;;0.40;;
66874;SDS011;53784;52.630;4.896;2022-08-01T12:05:34;0.47;;;0.40;;
66874;SDS011;53784;52.630;4.896;2022-08-01T12:08:02;0.50;;;0.40;;
66874;SDS011;53784;52.630;4.896;2022-08-01T12:10:29;0.57;;;0.47;;
66874;SDS011;53784;52.630;4.896;2022-08-01T12:13:01;0.50;;;0.40;;
66874;SDS011;53784;52.630;4.896;2022-08-01T12:15:34;0.50;;;0.40;;
66874;SDS011;53784;52.630;4.896;2022-08-01T12:18:01;0.60;;;0.50;;
66874;SDS011;53784;52.630;4.896;2022-08-01T12:20:30;0.68;;;0.57;;
66874;SDS011;53784;52.630;4.896;2022-08-01T12:23:04;0.60;;;0.50;;
66874;SDS011;53784;52.630;4.896;2022-08-01T12:25:32;0.60;;;0.50;;
66874;SDS011;53784;52.630;4.896;2022-08-01T12:28:01;0.65;;;0.50;;
66874;SDS011;53784;52.630;4.896;2022-08-01T12:30:28;0.60;;;0.50;;
66874;SDS011;53784;52.630;4.896;2022-08-01T12:32:55;0.60;;;0.50;;
66874;SDS011;53784;52.630;4.896;2022-08-01T12:35:22;0.60;;;0.40;;
66874;SDS011;53784;52.630;4.896;2022-08-01T12:37:49;0.60;;;0.50;;
66874;SDS011;53784;52.630;4.896;2022-08-01T12:40:22;0.80;;;0.50;;
66874;SDS011;53784;52.630;4.896;2022-08-01T12:42:57;0.80;;;0.50;;
66874;SDS011;53784;52.630;4.896;2022-08-01T12:45:24;0.68;;;0.50;;
66874;SDS011;53784;52.630;4.896;2022-08-01T12:47:52;0.80;;;0.65;;
66874;SDS011;53784;52.630;4.896;2022-08-01T12:50:19;0.60;;;0.50;;
66874;SDS011;53784;52.630;4.896;2022-08-01T12:52:46;0.50;;;0.40;;
66874;SDS011;53784;52.630;4.896;2022-08-01T12:55:13;0.50;;;0.40;;
66874;SDS011;53784;52.630;4.896;2022-08-01T12:57:44;0.40;;;0.40;;
66874;SDS011;53784;52.630;4.896;2022-08-01T13:00:11;0.40;;;0.40;;
66874;SDS011;53784;52.630;4.896;2022-08-01T13:03:02;0.40;;;0.40;;
66874;SDS011;53784;52.630;4.896;2022-08-01T13:05:40;0.30;;;0.30;;
66874;SDS011;53784;52.630;4.896;2022-08-01T13:08:12;0.30;;;0.30;;
66874;SDS011;53784;52.630;4.896;2022-08-01T13:10:39;0.30;;;0.30;;
66874;SDS011;53784;52.630;4.896;2022-08-01T13:13:04;0.30;;;0.30;;
66874;SDS011;53784;52.630;4.896;2022-08-01T13:15:31;0.30;;;0.30;;
66874;SDS011;53784;52.630;4.896;2022-08-01T13:17:59;0.30;;;0.30;;
66874;SDS011;53784;52.630;4.896;2022-08-01T13:20:30;0.20;;;0.20;;
66874;SDS011;53784;52.630;4.896;2022-08-01T13:23:10;0.20;;;0.20;;
66874;SDS011;53784;52.630;4.896;2022-08-01T13:25:46;0.20;;;0.20;;
66874;SDS011;53784;52.630;4.896;2022-08-01T13:28:15;0.20;;;0.20;;
66874;SDS011;53784;52.630;4.896;2022-08-01T13:33:46;0.20;;;0.20;;
66874;SDS011;53784;52.630;4.896;2022-08-01T13:36:12;0.20;;;0.20;;
66874;SDS011;53784;52.630;4.896;2022-08-01T13:38:38;0.20;;;0.20;;
66874;SDS011;53784;52.630;4.896;2022-08-01T13:41:23;0.20;;;0.20;;
66874;SDS011;53784;52.630;4.896;2022-08-01T13:43:48;0.60;;;0.47;;
66874;SDS011;53784;52.630;4.896;2022-08-01T13:46:14;0.10;;;0.10;;
66874;SDS011;53784;52.630;4.896;2022-08-01T13:48:39;0.20;;;0.20;;
66874;SDS011;53784;52.630;4.896;2022-08-01T13:51:04;0.20;;;0.20;;
66874;SDS011;53784;52.630;4.896;2022-08-01T13:53:30;0.20;;;0.20;;
66874;SDS011;53784;52.630;4.896;2022-08-01T13:55:55;0.20;;;0.20;;
66874;SDS011;53784;52.630;4.896;2022-08-01T13:58:20;0.20;;;0.20;;
66874;SDS011;53784;52.630;4.896;2022-08-01T14:00:46;0.20;;;0.20;;
66874;SDS011;53784;52.630;4.896;2022-08-01T14:03:11;0.63;;;0.63;;
66874;SDS011;53784;52.630;4.896;2022-08-01T14:05:37;0.20;;;0.20;;
66874;SDS011;53784;52.630;4.896;2022-08-01T14:08:03;0.20;;;0.20;;
66874;SDS011;53784;52.630;4.896;2022-08-01T14:10:28;0.20;;;0.20;;
66874;SDS011;53784;52.630;4.896;2022-08-01T14:12:57;0.20;;;0.20;;
66874;SDS011;53784;52.630;4.896;2022-08-01T14:15:23;0.20;;;0.20;;
66874;SDS011;53784;52.630;4.896;2022-08-01T14:17:49;0.20;;;0.20;;
66874;SDS011;53784;52.630;4.896;2022-08-01T14:20:14;0.17;;;0.17;;
66874;SDS011;53784;52.630;4.896;2022-08-01T14:22:40;1.20;;;0.90;;
66874;SDS011;53784;52.630;4.896;2022-08-01T14:25:05;0.10;;;0.10;;
66874;SDS011;53784;52.630;4.896;2022-08-01T14:27:31;0.15;;;0.15;;
66874;SDS011;53784;52.630;4.896;2022-08-01T14:30:00;0.10;;;0.10;;
66874;SDS011;53784;52.630;4.896;2022-08-01T14:32:26;0.20;;;0.20;;
66874;SDS011;53784;52.630;4.896;2022-08-01T14:34:51;0.10;;;0.10;;
66874;SDS011;53784;52.630;4.896;2022-08-01T14:37:16;0.10;;;0.10;;
66874;SDS011;53784;52.630;4.896;2022-08-01T14:39:42;0.10;;;0.10;;
66874;SDS011;53784;52.630;4.896;2022-08-01T14:42:07;0.20;;;0.20;;
66874;SDS011;53784;52.630;4.896;2022-08-01T14:44:32;0.20;;;0.20;;
66874;SDS011;53784;52.630;4.896;2022-08-01T14:46:57;0.10;;;0.10;;
66874;SDS011;53784;52.630;4.896;2022-08-01T14:49:23;0.20;;;0.20;;
66874;SDS011;53784;52.630;4.896;2022-08-01T14:51:48;0.10;;;0.10;;
66874;SDS011;53784;52.630;4.896;2022-08-01T14:54:13;0.25;;;0.25;;
66874;SDS011;53784;52.630;4.896;2022-08-01T14:56:39;0.20;;;0.20;;
66874;SDS011;53784;52.630;4.896;2022-08-01T14:59:04;0.52;;;0.52;;
66874;SDS011;53784;52.630;4.896;2022-08-01T15:01:29;0.20;;;0.20;;
66874;SDS011;53784;52.630;4.896;2022-08-01T15:03:54;0.10;;;0.10;;
66874;SDS011;53784;52.630;4.896;2022-08-01T15:06:20;0.10;;;0.10;;
66874;SDS011;53784;52.630;4.896;2022-08-01T15:08:46;0.10;;;0.10;;
66874;SDS011;53784;52.630;4.896;2022-08-01T15:11:11;0.10;;;0.10;;
66874;SDS011;53784;52.630;4.896;2022-08-01T15:13:36;0.10;;;0.10;;
66874;SDS011;53784;52.630;4.896;2022-08-01T15:16:02;0.10;;;0.10;;